sensor_id;sensor_type;location;lat;lon;timestamp;P1;durP1;ratioP1;P2;durP2;ratioP2
13457;SDS011;6801;53.018;11.560;2022-07-18T00:00:38;2.72;;;0.93;;
13457;SDS011;6801;53.018;11.560;2022-07-18T00:03:05;2.20;;;1.15;;
13457;SDS011;6801;53.018;11.560;2022-07-18T00:05:32;1.92;;;0.93;;
13457;SDS011;6801;53.018;11.560;2022-07-18T00:07:59;3.53;;;1.00;;
13457;SDS011;6801;53.018;11.560;2022-07-18T00:10:27;2.78;;;1.00;;
13457;SDS011;6801;53.018;11.560;2022-07-18T00:12:54;1.98;;;1.10;;
13457;SDS011;6801;53.018;11.560;2022-07-18T00:15:21;2.03;;;0.90;;
13457;SDS011;6801;53.018;11.560;2022-07-18T00:17:48;1.45;;;0.95;;
13457;SDS011;6801;53.018;11.560;2022-07-18T00:20:15;1.77;;;0.88;;
13457;SDS011;6801;53.018;11.560;2022-07-18T00:22:42;2.63;;;1.33;;
13457;SDS011;6801;53.018;11.560;2022-07-18T00:25:09;2.28;;;0.60;;
13457;SDS011;6801;53.018;11.560;2022-07-18T00:27:37;4.90;;;0.90;;
13457;SDS011;6801;53.018;11.560;2022-07-18T00:30:05;2.05;;;0.80;;
13457;SDS011;6801;53.018;11.560;2022-07-18T00:32:33;2.40;;;1.02;;
13457;SDS011;6801;53.018;11.560;2022-07-18T00:35:00;3.30;;;1.08;;
13457;SDS011;6801;53.018;11.560;2022-07-18T00:37:27;2.50;;;1.00;;
13457;SDS011;6801;53.018;11.560;2022-07-18T00:39:54;2.10;;;1.00;;
13457;SDS011;6801;53.018;11.560;2022-07-18T00:42:21;2.17;;;0.90;;
13457;SDS011;6801;53.018;11.560;2022-07-18T00:44:53;3.08;;;1.00;;
13457;SDS011;6801;53.018;11.560;2022-07-18T00:47:20;2.65;;;0.90;;
13457;SDS011;6801;53.018;11.560;2022-07-18T00:49:47;3.05;;;1.00;;
13457;SDS011;6801;53.018;11.560;2022-07-18T00:52:14;1.88;;;0.95;;
13457;SDS011;6801;53.018;11.560;2022-07-18T00:54:41;4.60;;;1.10;;
13457;SDS011;6801;53.018;11.560;2022-07-18T00:57:08;4.20;;;1.08;;
13457;SDS011;6801;53.018;11.560;2022-07-18T00:59:35;3.63;;;1.30;;
13457;SDS011;6801;53.018;11.560;2022-07-18T01:02:21;3.40;;;1.30;;
13457;SDS011;6801;53.018;11.560;2022-07-18T01:04:49;1.88;;;1.15;;
13457;SDS011;6801;53.018;11.560;2022-07-18T01:07:16;2.83;;;0.95;;
13457;SDS011;6801;53.018;11.560;2022-07-18T01:09:43;2.17;;;0.90;;
13457;SDS011;6801;53.018;11.560;2022-07-18T01:12:10;2.58;;;1.30;;
13457;SDS011;6801;53.018;11.560;2022-07-18T01:14:37;2.10;;;0.85;;
13457;SDS011;6801;53.018;11.560;2022-07-18T01:17:11;1.67;;;0.88;;
13457;SDS011;6801;53.018;11.560;2022-07-18T01:19:40;2.03;;;1.00;;
13457;SDS011;6801;53.018;11.560;2022-07-18T01:22:09;3.58;;;1.20;;
13457;SDS011;6801;53.018;11.560;2022-07-18T01:24:36;5.43;;;1.33;;
13457;SDS011;6801;53.018;11.560;2022-07-18T01:27:03;2.25;;;1.00;;
13457;SDS011;6801;53.018;11.560;2022-07-18T01:29:31;4.00;;;1.40;;
13457;SDS011;6801;53.018;11.560;2022-07-18T01:32:03;2.45;;;1.15;;
13457;SDS011;6801;53.018;11.560;2022-07-18T01:34:30;3.65;;;1.20;;
13457;SDS011;6801;53.018;11.560;2022-07-18T01:36:57;3.08;;;1.00;;
13457;SDS011;6801;53.018;11.560;2022-07-18T01:39:26;2.25;;;1.10;;
13457;SDS011;6801;53.018;11.560;2022-07-18T01:41:56;3.60;;;1.20;;
13457;SDS011;6801;53.018;11.560;2022-07-18T01:44:24;2.55;;;1.10;;
13457;SDS011;6801;53.018;11.560;2022-07-18T01:46:52;3.15;;;1.20;;
13457;SDS011;6801;53.018;11.560;2022-07-18T01:49:20;3.38;;;1.27;;
13457;SDS011;6801;53.018;11.560;2022-07-18T01:51:47;2.03;;;0.95;;
13457;SDS011;6801;53.018;11.560;2022-07-18T01:54:18;2.60;;;1.00;;
13457;SDS011;6801;53.018;11.560;2022-07-18T01:56:48;3.28;;;1.25;;
13457;SDS011;6801;53.018;11.560;2022-07-18T01:59:15;2.65;;;1.42;;
13457;SDS011;6801;53.018;11.560;2022-07-18T02:01:42;4.07;;;1.13;;
13457;SDS011;6801;53.018;11.560;2022-07-18T02:04:09;2.30;;;1.42;;
13457;SDS011;6801;53.018;11.560;2022-07-18T02:06:36;2.70;;;1.30;;
13457;SDS011;6801;53.018;11.560;2022-07-18T02:09:04;2.58;;;1.40;;
13457;SDS011;6801;53.018;11.560;2022-07-18T02:11:31;4.60;;;1.67;;
13457;SDS011;6801;53.018;11.560;2022-07-18T02:13:59;3.42;;;1.17;;
13457;SDS011;6801;53.018;11.560;2022-07-18T02:16:26;1.98;;;1.17;;
13457;SDS011;6801;53.018;11.560;2022-07-18T02:18:54;2.28;;;1.40;;
13457;SDS011;6801;53.018;11.560;2022-07-18T02:21:21;4.20;;;1.40;;
13457;SDS011;6801;53.018;11.560;2022-07-18T02:23:48;2.70;;;1.20;;
13457;SDS011;6801;53.018;11.560;2022-07-18T02:26:16;2.13;;;1.30;;
13457;SDS011;6801;53.018;11.560;2022-07-18T02:28:43;2.63;;;1.52;;
13457;SDS011;6801;53.018;11.560;2022-07-18T02:31:11;3.35;;;1.25;;
13457;SDS011;6801;53.018;11.560;2022-07-18T02:33:38;2.30;;;1.25;;
13457;SDS011;6801;53.018;11.560;2022-07-18T02:36:05;4.13;;;1.17;;
13457;SDS011;6801;53.018;11.560;2022-07-18T02:38:33;5.78;;;1.88;;
13457;SDS011;6801;53.018;11.560;2022-07-18T02:41:00;2.95;;;1.75;;
13457;SDS011;6801;53.018;11.560;2022-07-18T02:43:26;2.85;;;1.73;;
13457;SDS011;6801;53.018;11.560;2022-07-18T02:45:53;3.58;;;1.45;;
13457;SDS011;6801;53.018;11.560;2022-07-18T02:48:22;3.85;;;1.60;;
13457;SDS011;6801;53.018;11.560;2022-07-18T02:50:49;2.40;;;1.40;;
13457;SDS011;6801;53.018;11.560;2022-07-18T02:53:16;2.97;;;1.40;;
13457;SDS011;6801;53.018;11.560;2022-07-18T02:55:44;3.38;;;1.65;;
13457;SDS011;6801;53.018;11.560;2022-07-18T02:58:11;4.32;;;1.70;;
13457;SDS011;6801;53.018;11.560;2022-07-18T03:00:38;2.85;;;1.48;;
13457;SDS011;6801;53.018;11.560;2022-07-18T03:03:05;3.78;;;1.50;;
13457;SDS011;6801;53.018;11.560;2022-07-18T03:05:34;2.90;;;1.50;;
13457;SDS011;6801;53.018;11.560;2022-07-18T03:08:01;3.22;;;1.58;;
13457;SDS011;6801;53.018;11.560;2022-07-18T03:10:28;3.85;;;1.67;;
13457;SDS011;6801;53.018;11.560;2022-07-18T03:12:55;4.30;;;1.55;;
13457;SDS011;6801;53.018;11.560;2022-07-18T03:15:22;3.35;;;1.65;;
13457;SDS011;6801;53.018;11.560;2022-07-18T03:17:49;5.10;;;1.60;;
13457;SDS011;6801;53.018;11.560;2022-07-18T03:20:16;3.20;;;1.60;;
13457;SDS011;6801;53.018;11.560;2022-07-18T03:22:44;2.10;;;1.33;;
13457;SDS011;6801;53.018;11.560;2022-07-18T03:25:11;3.13;;;1.45;;
13457;SDS011;6801;53.018;11.560;2022-07-18T03:27:38;3.95;;;1.60;;
13457;SDS011;6801;53.018;11.560;2022-07-18T03:30:05;2.80;;;1.48;;
13457;SDS011;6801;53.018;11.560;2022-07-18T03:32:33;5.28;;;1.60;;
13457;SDS011;6801;53.018;11.560;2022-07-18T03:35:00;4.70;;;1.90;;
13457;SDS011;6801;53.018;11.560;2022-07-18T03:37:27;5.82;;;1.95;;
13457;SDS011;6801;53.018;11.560;2022-07-18T03:39:55;3.42;;;1.27;;
13457;SDS011;6801;53.018;11.560;2022-07-18T03:42:22;3.33;;;1.65;;
13457;SDS011;6801;53.018;11.560;2022-07-18T03:44:49;3.17;;;1.35;;
13457;SDS011;6801;53.018;11.560;2022-07-18T03:47:16;2.35;;;1.40;;
13457;SDS011;6801;53.018;11.560;2022-07-18T03:49:43;3.22;;;1.67;;
13457;SDS011;6801;53.018;11.560;2022-07-18T03:52:10;3.88;;;1.30;;
13457;SDS011;6801;53.018;11.560;2022-07-18T03:54:37;3.47;;;1.77;;
13457;SDS011;6801;53.018;11.560;2022-07-18T03:57:05;3.30;;;1.60;;
13457;SDS011;6801;53.018;11.560;2022-07-18T03:59:32;3.25;;;1.60;;
13457;SDS011;6801;53.018;11.560;2022-07-18T04:02:00;4.65;;;2.00;;
13457;SDS011;6801;53.018;11.560;2022-07-18T04:04:27;2.85;;;1.60;;
13457;SDS011;6801;53.018;11.560;2022-07-18T04:06:54;3.05;;;1.90;;
13457;SDS011;6801;53.018;11.560;2022-07-18T04:09:24;4.53;;;2.05;;
13457;SDS011;6801;53.018;11.560;2022-07-18T04:11:51;4.50;;;2.20;;
13457;SDS011;6801;53.018;11.560;2022-07-18T04:14:19;4.90;;;2.55;;
13457;SDS011;6801;53.018;11.560;2022-07-18T04:16:47;3.58;;;1.70;;
13457;SDS011;6801;53.018;11.560;2022-07-18T04:19:15;4.00;;;2.20;;
13457;SDS011;6801;53.018;11.560;2022-07-18T04:21:42;4.82;;;2.38;;
13457;SDS011;6801;53.018;11.560;2022-07-18T04:24:09;7.15;;;2.20;;
13457;SDS011;6801;53.018;11.560;2022-07-18T04:26:37;6.03;;;1.88;;
13457;SDS011;6801;53.018;11.560;2022-07-18T04:29:03;3.20;;;1.98;;
13457;SDS011;6801;53.018;11.560;2022-07-18T04:31:32;3.20;;;1.88;;
13457;SDS011;6801;53.018;11.560;2022-07-18T04:33:59;5.07;;;1.98;;
13457;SDS011;6801;53.018;11.560;2022-07-18T04:36:26;3.17;;;1.67;;
13457;SDS011;6801;53.018;11.560;2022-07-18T04:38:53;3.75;;;2.35;;
13457;SDS011;6801;53.018;11.560;2022-07-18T04:41:20;4.60;;;2.40;;
13457;SDS011;6801;53.018;11.560;2022-07-18T04:43:50;5.20;;;2.30;;
13457;SDS011;6801;53.018;11.560;2022-07-18T04:46:17;5.43;;;2.67;;
13457;SDS011;6801;53.018;11.560;2022-07-18T04:48:45;5.53;;;1.95;;
13457;SDS011;6801;53.018;11.560;2022-07-18T04:51:13;4.25;;;1.88;;
13457;SDS011;6801;53.018;11.560;2022-07-18T04:53:41;3.28;;;1.98;;
13457;SDS011;6801;53.018;11.560;2022-07-18T04:56:08;4.78;;;1.95;;
13457;SDS011;6801;53.018;11.560;2022-07-18T04:58:35;4.93;;;2.22;;
13457;SDS011;6801;53.018;11.560;2022-07-18T05:01:02;5.00;;;1.92;;
13457;SDS011;6801;53.018;11.560;2022-07-18T05:03:29;4.03;;;2.47;;
13457;SDS011;6801;53.018;11.560;2022-07-18T05:05:57;4.80;;;2.58;;
13457;SDS011;6801;53.018;11.560;2022-07-18T05:08:24;4.10;;;2.47;;
13457;SDS011;6801;53.018;11.560;2022-07-18T05:10:51;7.75;;;3.20;;
13457;SDS011;6801;53.018;11.560;2022-07-18T05:13:18;6.28;;;3.05;;
13457;SDS011;6801;53.018;11.560;2022-07-18T05:15:45;5.60;;;2.70;;
13457;SDS011;6801;53.018;11.560;2022-07-18T05:18:12;44.15;;;5.70;;
13457;SDS011;6801;53.018;11.560;2022-07-18T05:20:39;52.35;;;6.05;;
13457;SDS011;6801;53.018;11.560;2022-07-18T05:23:07;41.38;;;5.28;;
13457;SDS011;6801;53.018;11.560;2022-07-18T05:25:34;9.73;;;2.85;;
13457;SDS011;6801;53.018;11.560;2022-07-18T05:28:01;9.38;;;2.85;;
13457;SDS011;6801;53.018;11.560;2022-07-18T05:30:28;6.32;;;2.40;;
13457;SDS011;6801;53.018;11.560;2022-07-18T05:32:55;4.85;;;2.17;;
13457;SDS011;6801;53.018;11.560;2022-07-18T05:35:23;4.07;;;2.60;;
13457;SDS011;6801;53.018;11.560;2022-07-18T05:37:50;6.72;;;2.70;;
13457;SDS011;6801;53.018;11.560;2022-07-18T05:40:18;6.60;;;2.55;;
13457;SDS011;6801;53.018;11.560;2022-07-18T05:42:45;6.13;;;2.60;;
13457;SDS011;6801;53.018;11.560;2022-07-18T05:45:12;3.78;;;2.03;;
13457;SDS011;6801;53.018;11.560;2022-07-18T05:47:39;5.93;;;2.65;;
13457;SDS011;6801;53.018;11.560;2022-07-18T05:50:07;6.13;;;2.20;;
13457;SDS011;6801;53.018;11.560;2022-07-18T05:52:35;6.25;;;2.35;;
13457;SDS011;6801;53.018;11.560;2022-07-18T05:55:02;7.05;;;2.25;;
13457;SDS011;6801;53.018;11.560;2022-07-18T05:57:31;4.43;;;2.20;;
13457;SDS011;6801;53.018;11.560;2022-07-18T05:59:58;9.73;;;2.45;;
13457;SDS011;6801;53.018;11.560;2022-07-18T06:02:25;5.40;;;2.50;;
13457;SDS011;6801;53.018;11.560;2022-07-18T06:04:52;7.70;;;2.33;;
13457;SDS011;6801;53.018;11.560;2022-07-18T06:07:19;4.45;;;2.30;;
13457;SDS011;6801;53.018;11.560;2022-07-18T06:09:46;5.40;;;2.30;;
13457;SDS011;6801;53.018;11.560;2022-07-18T06:12:13;4.82;;;2.47;;
13457;SDS011;6801;53.018;11.560;2022-07-18T06:14:43;6.28;;;2.25;;
13457;SDS011;6801;53.018;11.560;2022-07-18T06:17:10;3.20;;;1.90;;
13457;SDS011;6801;53.018;11.560;2022-07-18T06:19:37;7.40;;;2.67;;
13457;SDS011;6801;53.018;11.560;2022-07-18T06:22:04;4.55;;;2.13;;
13457;SDS011;6801;53.018;11.560;2022-07-18T06:24:31;7.15;;;2.00;;
13457;SDS011;6801;53.018;11.560;2022-07-18T06:26:58;8.02;;;2.13;;
13457;SDS011;6801;53.018;11.560;2022-07-18T06:29:26;4.68;;;1.83;;
13457;SDS011;6801;53.018;11.560;2022-07-18T06:31:55;6.68;;;2.25;;
13457;SDS011;6801;53.018;11.560;2022-07-18T06:34:22;7.82;;;2.42;;
13457;SDS011;6801;53.018;11.560;2022-07-18T06:36:49;5.22;;;1.73;;
13457;SDS011;6801;53.018;11.560;2022-07-18T06:39:16;5.22;;;2.28;;
13457;SDS011;6801;53.018;11.560;2022-07-18T06:41:44;3.97;;;1.95;;
13457;SDS011;6801;53.018;11.560;2022-07-18T06:44:12;5.15;;;1.92;;
13457;SDS011;6801;53.018;11.560;2022-07-18T06:46:39;2.72;;;1.42;;
13457;SDS011;6801;53.018;11.560;2022-07-18T06:49:08;4.18;;;2.28;;
13457;SDS011;6801;53.018;11.560;2022-07-18T06:51:35;3.97;;;2.22;;
13457;SDS011;6801;53.018;11.560;2022-07-18T06:54:02;6.05;;;2.33;;
13457;SDS011;6801;53.018;11.560;2022-07-18T06:56:29;9.70;;;2.05;;
13457;SDS011;6801;53.018;11.560;2022-07-18T06:58:56;4.78;;;2.53;;
13457;SDS011;6801;53.018;11.560;2022-07-18T07:01:23;5.90;;;2.72;;
13457;SDS011;6801;53.018;11.560;2022-07-18T07:03:50;4.50;;;1.98;;
13457;SDS011;6801;53.018;11.560;2022-07-18T07:06:18;4.50;;;2.58;;
13457;SDS011;6801;53.018;11.560;2022-07-18T07:08:45;6.57;;;2.40;;
13457;SDS011;6801;53.018;11.560;2022-07-18T07:11:12;4.07;;;1.90;;
13457;SDS011;6801;53.018;11.560;2022-07-18T07:13:39;4.05;;;2.08;;
13457;SDS011;6801;53.018;11.560;2022-07-18T07:16:06;5.15;;;1.90;;
13457;SDS011;6801;53.018;11.560;2022-07-18T07:18:33;5.38;;;1.90;;
13457;SDS011;6801;53.018;11.560;2022-07-18T07:21:01;5.05;;;2.72;;
13457;SDS011;6801;53.018;11.560;2022-07-18T07:23:30;4.50;;;2.28;;
13457;SDS011;6801;53.018;11.560;2022-07-18T07:25:57;4.18;;;2.38;;
13457;SDS011;6801;53.018;11.560;2022-07-18T07:28:24;4.82;;;2.35;;
13457;SDS011;6801;53.018;11.560;2022-07-18T07:30:51;4.05;;;2.70;;
13457;SDS011;6801;53.018;11.560;2022-07-18T07:33:18;4.93;;;2.08;;
13457;SDS011;6801;53.018;11.560;2022-07-18T07:35:45;4.82;;;2.40;;
13457;SDS011;6801;53.018;11.560;2022-07-18T07:38:12;7.03;;;2.60;;
13457;SDS011;6801;53.018;11.560;2022-07-18T07:40:44;4.82;;;2.47;;
13457;SDS011;6801;53.018;11.560;2022-07-18T07:43:12;3.92;;;2.05;;
13457;SDS011;6801;53.018;11.560;2022-07-18T07:45:40;5.45;;;2.70;;
13457;SDS011;6801;53.018;11.560;2022-07-18T07:48:08;5.80;;;2.75;;
13457;SDS011;6801;53.018;11.560;2022-07-18T07:50:35;6.35;;;3.40;;
13457;SDS011;6801;53.018;11.560;2022-07-18T07:53:02;3.88;;;2.83;;
13457;SDS011;6801;53.018;11.560;2022-07-18T07:55:29;4.25;;;2.33;;
13457;SDS011;6801;53.018;11.560;2022-07-18T07:57:58;4.82;;;2.75;;
13457;SDS011;6801;53.018;11.560;2022-07-18T08:00:26;5.25;;;2.45;;
13457;SDS011;6801;53.018;11.560;2022-07-18T08:02:54;4.63;;;2.78;;
13457;SDS011;6801;53.018;11.560;2022-07-18T08:05:22;4.90;;;2.88;;
13457;SDS011;6801;53.018;11.560;2022-07-18T08:07:50;4.60;;;2.50;;
13457;SDS011;6801;53.018;11.560;2022-07-18T08:10:17;3.72;;;2.35;;
13457;SDS011;6801;53.018;11.560;2022-07-18T08:12:45;4.13;;;2.50;;
13457;SDS011;6801;53.018;11.560;2022-07-18T08:15:14;5.95;;;2.85;;
13457;SDS011;6801;53.018;11.560;2022-07-18T08:17:41;4.55;;;2.83;;
13457;SDS011;6801;53.018;11.560;2022-07-18T08:20:08;6.03;;;2.90;;
13457;SDS011;6801;53.018;11.560;2022-07-18T08:22:37;5.63;;;2.47;;
13457;SDS011;6801;53.018;11.560;2022-07-18T08:25:18;4.75;;;2.60;;
13457;SDS011;6801;53.018;11.560;2022-07-18T08:27:46;4.10;;;2.35;;
13457;SDS011;6801;53.018;11.560;2022-07-18T08:30:14;3.83;;;2.22;;
13457;SDS011;6801;53.018;11.560;2022-07-18T08:32:41;5.40;;;2.60;;
13457;SDS011;6801;53.018;11.560;2022-07-18T08:35:08;4.40;;;2.53;;
13457;SDS011;6801;53.018;11.560;2022-07-18T08:37:35;3.90;;;2.28;;
13457;SDS011;6801;53.018;11.560;2022-07-18T08:40:03;3.20;;;2.00;;
13457;SDS011;6801;53.018;11.560;2022-07-18T08:42:32;7.15;;;2.58;;
13457;SDS011;6801;53.018;11.560;2022-07-18T08:45:00;6.05;;;2.63;;
13457;SDS011;6801;53.018;11.560;2022-07-18T08:47:29;3.95;;;2.20;;
13457;SDS011;6801;53.018;11.560;2022-07-18T08:49:56;3.97;;;2.40;;
13457;SDS011;6801;53.018;11.560;2022-07-18T08:52:24;4.80;;;2.40;;
13457;SDS011;6801;53.018;11.560;2022-07-18T08:54:52;4.57;;;2.30;;
13457;SDS011;6801;53.018;11.560;2022-07-18T08:57:19;4.88;;;2.53;;
13457;SDS011;6801;53.018;11.560;2022-07-18T08:59:46;4.90;;;2.58;;
13457;SDS011;6801;53.018;11.560;2022-07-18T09:02:13;4.10;;;2.33;;
13457;SDS011;6801;53.018;11.560;2022-07-18T09:04:42;4.35;;;2.50;;
13457;SDS011;6801;53.018;11.560;2022-07-18T09:09:51;4.65;;;2.72;;
13457;SDS011;6801;53.018;11.560;2022-07-18T09:12:19;7.65;;;2.90;;
13457;SDS011;6801;53.018;11.560;2022-07-18T09:14:47;5.25;;;2.80;;
13457;SDS011;6801;53.018;11.560;2022-07-18T09:17:15;6.32;;;2.45;;
13457;SDS011;6801;53.018;11.560;2022-07-18T09:19:56;3.30;;;2.40;;
13457;SDS011;6801;53.018;11.560;2022-07-18T09:22:26;4.55;;;2.58;;
13457;SDS011;6801;53.018;11.560;2022-07-18T09:24:56;6.07;;;2.47;;
13457;SDS011;6801;53.018;11.560;2022-07-18T09:27:30;5.97;;;2.70;;
13457;SDS011;6801;53.018;11.560;2022-07-18T09:33:04;4.85;;;2.90;;
13457;SDS011;6801;53.018;11.560;2022-07-18T09:35:34;6.75;;;2.72;;
13457;SDS011;6801;53.018;11.560;2022-07-18T09:38:03;5.03;;;2.90;;
13457;SDS011;6801;53.018;11.560;2022-07-18T09:40:33;4.22;;;2.78;;
13457;SDS011;6801;53.018;11.560;2022-07-18T09:43:02;5.35;;;2.80;;
13457;SDS011;6801;53.018;11.560;2022-07-18T09:45:30;5.97;;;2.90;;
13457;SDS011;6801;53.018;11.560;2022-07-18T09:47:59;5.28;;;2.50;;
13457;SDS011;6801;53.018;11.560;2022-07-18T09:50:29;4.00;;;2.63;;
13457;SDS011;6801;53.018;11.560;2022-07-18T09:53:00;4.57;;;2.63;;
13457;SDS011;6801;53.018;11.560;2022-07-18T09:55:29;3.75;;;2.45;;
13457;SDS011;6801;53.018;11.560;2022-07-18T09:57:57;4.47;;;3.03;;
13457;SDS011;6801;53.018;11.560;2022-07-18T10:00:29;5.53;;;3.08;;
13457;SDS011;6801;53.018;11.560;2022-07-18T10:02:58;4.50;;;2.83;;
13457;SDS011;6801;53.018;11.560;2022-07-18T10:05:27;4.95;;;2.92;;
13457;SDS011;6801;53.018;11.560;2022-07-18T10:07:54;4.60;;;3.03;;
13457;SDS011;6801;53.018;11.560;2022-07-18T10:10:23;7.00;;;2.85;;
13457;SDS011;6801;53.018;11.560;2022-07-18T10:12:54;4.85;;;3.28;;
13457;SDS011;6801;53.018;11.560;2022-07-18T10:15:22;4.63;;;3.17;;
13457;SDS011;6801;53.018;11.560;2022-07-18T10:17:50;5.88;;;2.63;;
13457;SDS011;6801;53.018;11.560;2022-07-18T10:20:18;6.32;;;2.95;;
13457;SDS011;6801;53.018;11.560;2022-07-18T10:22:52;5.28;;;3.08;;
13457;SDS011;6801;53.018;11.560;2022-07-18T10:25:22;4.95;;;2.97;;
13457;SDS011;6801;53.018;11.560;2022-07-18T10:27:51;5.47;;;3.30;;
13457;SDS011;6801;53.018;11.560;2022-07-18T10:30:30;5.30;;;3.45;;
13457;SDS011;6801;53.018;11.560;2022-07-18T10:32:59;6.97;;;3.10;;
13457;SDS011;6801;53.018;11.560;2022-07-18T10:38:27;5.25;;;3.17;;
13457;SDS011;6801;53.018;11.560;2022-07-18T10:41:02;6.32;;;3.38;;
13457;SDS011;6801;53.018;11.560;2022-07-18T10:43:32;5.55;;;3.25;;
13457;SDS011;6801;53.018;11.560;2022-07-18T10:48:51;5.05;;;3.25;;
13457;SDS011;6801;53.018;11.560;2022-07-18T10:51:32;6.10;;;3.30;;
13457;SDS011;6801;53.018;11.560;2022-07-18T10:54:04;5.57;;;3.65;;
13457;SDS011;6801;53.018;11.560;2022-07-18T11:02:30;6.05;;;3.75;;
13457;SDS011;6801;53.018;11.560;2022-07-18T11:04:58;7.65;;;4.50;;
13457;SDS011;6801;53.018;11.560;2022-07-18T11:07:26;4.15;;;3.13;;
13457;SDS011;6801;53.018;11.560;2022-07-18T11:09:53;5.03;;;3.63;;
13457;SDS011;6801;53.018;11.560;2022-07-18T11:12:22;6.07;;;3.92;;
13457;SDS011;6801;53.018;11.560;2022-07-18T11:15:04;5.05;;;3.35;;
13457;SDS011;6801;53.018;11.560;2022-07-18T11:17:59;13.15;;;3.83;;
13457;SDS011;6801;53.018;11.560;2022-07-18T11:20:29;5.88;;;3.70;;
13457;SDS011;6801;53.018;11.560;2022-07-18T11:23:02;7.20;;;4.30;;
13457;SDS011;6801;53.018;11.560;2022-07-18T11:25:31;7.90;;;3.75;;
13457;SDS011;6801;53.018;11.560;2022-07-18T11:27:59;6.05;;;3.70;;
13457;SDS011;6801;53.018;11.560;2022-07-18T11:30:28;8.25;;;3.80;;
13457;SDS011;6801;53.018;11.560;2022-07-18T11:32:55;6.53;;;3.80;;
13457;SDS011;6801;53.018;11.560;2022-07-18T11:35:23;5.53;;;3.85;;
13457;SDS011;6801;53.018;11.560;2022-07-18T11:37:51;124.05;;;10.90;;
13457;SDS011;6801;53.018;11.560;2022-07-18T11:40:18;7.30;;;3.67;;
13457;SDS011;6801;53.018;11.560;2022-07-18T11:42:46;6.32;;;3.80;;
13457;SDS011;6801;53.018;11.560;2022-07-18T11:45:15;5.68;;;4.05;;
13457;SDS011;6801;53.018;11.560;2022-07-18T11:47:46;6.32;;;4.25;;
13457;SDS011;6801;53.018;11.560;2022-07-18T11:50:15;7.05;;;4.68;;
13457;SDS011;6801;53.018;11.560;2022-07-18T11:52:42;6.63;;;4.63;;
13457;SDS011;6801;53.018;11.560;2022-07-18T11:55:10;7.15;;;4.07;;
13457;SDS011;6801;53.018;11.560;2022-07-18T11:57:39;37.07;;;7.17;;
13457;SDS011;6801;53.018;11.560;2022-07-18T12:00:18;7.72;;;4.80;;
13457;SDS011;6801;53.018;11.560;2022-07-18T12:02:46;7.28;;;4.38;;
13457;SDS011;6801;53.018;11.560;2022-07-18T12:05:13;5.35;;;4.18;;
13457;SDS011;6801;53.018;11.560;2022-07-18T12:07:40;10.63;;;4.38;;
13457;SDS011;6801;53.018;11.560;2022-07-18T12:10:16;5.10;;;3.63;;
13457;SDS011;6801;53.018;11.560;2022-07-18T12:12:43;6.55;;;4.50;;
13457;SDS011;6801;53.018;11.560;2022-07-18T12:15:12;8.85;;;4.80;;
13457;SDS011;6801;53.018;11.560;2022-07-18T12:17:44;6.32;;;4.45;;
13457;SDS011;6801;53.018;11.560;2022-07-18T12:20:13;5.85;;;4.15;;
13457;SDS011;6801;53.018;11.560;2022-07-18T12:28:25;8.13;;;3.95;;
13457;SDS011;6801;53.018;11.560;2022-07-18T12:30:53;5.85;;;3.80;;
13457;SDS011;6801;53.018;11.560;2022-07-18T12:33:22;6.05;;;3.83;;
13457;SDS011;6801;53.018;11.560;2022-07-18T12:35:55;6.60;;;3.45;;
13457;SDS011;6801;53.018;11.560;2022-07-18T12:38:23;4.75;;;3.60;;
13457;SDS011;6801;53.018;11.560;2022-07-18T12:40:51;6.35;;;3.85;;
13457;SDS011;6801;53.018;11.560;2022-07-18T12:43:23;7.32;;;3.65;;
13457;SDS011;6801;53.018;11.560;2022-07-18T12:48:19;7.82;;;4.00;;
13457;SDS011;6801;53.018;11.560;2022-07-18T12:50:54;5.82;;;4.30;;
13457;SDS011;6801;53.018;11.560;2022-07-18T12:53:23;5.47;;;4.05;;
13457;SDS011;6801;53.018;11.560;2022-07-18T12:55:51;4.95;;;3.78;;
13457;SDS011;6801;53.018;11.560;2022-07-18T12:58:18;6.82;;;4.10;;
13457;SDS011;6801;53.018;11.560;2022-07-18T13:00:45;7.38;;;3.35;;
13457;SDS011;6801;53.018;11.560;2022-07-18T13:03:12;8.75;;;3.13;;
13457;SDS011;6801;53.018;11.560;2022-07-18T13:05:41;8.00;;;3.25;;
13457;SDS011;6801;53.018;11.560;2022-07-18T13:08:08;6.33;;;3.30;;
13457;SDS011;6801;53.018;11.560;2022-07-18T13:10:37;6.10;;;3.38;;
13457;SDS011;6801;53.018;11.560;2022-07-18T13:13:05;9.30;;;3.60;;
13457;SDS011;6801;53.018;11.560;2022-07-18T13:15:33;4.55;;;2.80;;
13457;SDS011;6801;53.018;11.560;2022-07-18T13:18:00;8.60;;;3.45;;
13457;SDS011;6801;53.018;11.560;2022-07-18T13:20:27;3.97;;;2.90;;
13457;SDS011;6801;53.018;11.560;2022-07-18T13:22:56;5.95;;;2.78;;
13457;SDS011;6801;53.018;11.560;2022-07-18T13:25:26;6.10;;;3.03;;
13457;SDS011;6801;53.018;11.560;2022-07-18T13:27:53;4.35;;;2.78;;
13457;SDS011;6801;53.018;11.560;2022-07-18T13:30:20;5.22;;;2.55;;
13457;SDS011;6801;53.018;11.560;2022-07-18T13:32:47;7.15;;;2.35;;
13457;SDS011;6801;53.018;11.560;2022-07-18T13:35:15;7.10;;;3.13;;
13457;SDS011;6801;53.018;11.560;2022-07-18T13:37:42;6.13;;;2.70;;
13457;SDS011;6801;53.018;11.560;2022-07-18T13:40:11;3.92;;;2.40;;
13457;SDS011;6801;53.018;11.560;2022-07-18T13:42:39;5.85;;;1.65;;
13457;SDS011;6801;53.018;11.560;2022-07-18T13:45:06;3.78;;;2.10;;
13457;SDS011;6801;53.018;11.560;2022-07-18T13:47:34;6.57;;;1.90;;
13457;SDS011;6801;53.018;11.560;2022-07-18T13:50:01;5.63;;;2.78;;
13457;SDS011;6801;53.018;11.560;2022-07-18T13:52:28;2.90;;;1.85;;
13457;SDS011;6801;53.018;11.560;2022-07-18T13:54:55;4.88;;;2.03;;
13457;SDS011;6801;53.018;11.560;2022-07-18T13:57:23;2.58;;;1.80;;
13457;SDS011;6801;53.018;11.560;2022-07-18T13:59:50;3.38;;;2.15;;
13457;SDS011;6801;53.018;11.560;2022-07-18T14:02:17;3.28;;;1.90;;
13457;SDS011;6801;53.018;11.560;2022-07-18T14:04:44;4.68;;;2.00;;
13457;SDS011;6801;53.018;11.560;2022-07-18T14:07:11;4.22;;;2.30;;
13457;SDS011;6801;53.018;11.560;2022-07-18T14:09:42;3.60;;;2.13;;
13457;SDS011;6801;53.018;11.560;2022-07-18T14:12:09;3.63;;;2.08;;
13457;SDS011;6801;53.018;11.560;2022-07-18T14:14:37;6.88;;;2.03;;
13457;SDS011;6801;53.018;11.560;2022-07-18T14:17:04;4.10;;;2.03;;
13457;SDS011;6801;53.018;11.560;2022-07-18T14:19:31;3.13;;;2.05;;
13457;SDS011;6801;53.018;11.560;2022-07-18T14:22:02;5.72;;;1.90;;
13457;SDS011;6801;53.018;11.560;2022-07-18T14:24:29;3.63;;;1.90;;
13457;SDS011;6801;53.018;11.560;2022-07-18T14:26:56;3.88;;;1.90;;
13457;SDS011;6801;53.018;11.560;2022-07-18T14:29:23;5.30;;;2.35;;
13457;SDS011;6801;53.018;11.560;2022-07-18T14:31:51;4.57;;;2.15;;
13457;SDS011;6801;53.018;11.560;2022-07-18T14:34:18;4.43;;;2.30;;
13457;SDS011;6801;53.018;11.560;2022-07-18T14:36:45;3.42;;;2.17;;
13457;SDS011;6801;53.018;11.560;2022-07-18T14:39:12;5.82;;;1.95;;
13457;SDS011;6801;53.018;11.560;2022-07-18T14:41:39;4.82;;;2.05;;
13457;SDS011;6801;53.018;11.560;2022-07-18T14:44:06;3.03;;;1.80;;
13457;SDS011;6801;53.018;11.560;2022-07-18T14:46:33;4.75;;;2.15;;
13457;SDS011;6801;53.018;11.560;2022-07-18T14:49:01;4.00;;;2.10;;
13457;SDS011;6801;53.018;11.560;2022-07-18T14:51:28;3.50;;;2.28;;
13457;SDS011;6801;53.018;11.560;2022-07-18T14:53:55;4.03;;;2.10;;
13457;SDS011;6801;53.018;11.560;2022-07-18T14:56:22;4.47;;;2.15;;
13457;SDS011;6801;53.018;11.560;2022-07-18T14:58:50;3.00;;;1.77;;
13457;SDS011;6801;53.018;11.560;2022-07-18T15:01:17;4.18;;;2.15;;
13457;SDS011;6801;53.018;11.560;2022-07-18T15:03:45;7.18;;;2.38;;
13457;SDS011;6801;53.018;11.560;2022-07-18T15:06:14;4.90;;;2.45;;
13457;SDS011;6801;53.018;11.560;2022-07-18T15:08:41;4.05;;;1.98;;
13457;SDS011;6801;53.018;11.560;2022-07-18T15:11:08;4.60;;;2.38;;
13457;SDS011;6801;53.018;11.560;2022-07-18T15:13:35;3.83;;;2.15;;
13457;SDS011;6801;53.018;11.560;2022-07-18T15:16:02;4.32;;;2.03;;
13457;SDS011;6801;53.018;11.560;2022-07-18T15:18:29;3.97;;;1.98;;